sensor_id;sensor_type;location;lat;lon;timestamp;temperature;humidity
15113;DHT22;7657;50.140;7.076;2022-11-20T00:01:07;5.20;99.90
15113;DHT22;7657;50.140;7.076;2022-11-20T00:03:35;5.30;99.90
15113;DHT22;7657;50.140;7.076;2022-11-20T00:06:02;5.20;99.90
15113;DHT22;7657;50.140;7.076;2022-11-20T00:08:29;5.10;99.90
15113;DHT22;7657;50.140;7.076;2022-11-20T00:10:56;5.20;99.90
15113;DHT22;7657;50.140;7.076;2022-11-20T00:13:23;5.20;99.90
15113;DHT22;7657;50.140;7.076;2022-11-20T00:15:58;5.30;99.90
15113;DHT22;7657;50.140;7.076;2022-11-20T00:18:25;5.40;99.90
15113;DHT22;7657;50.140;7.076;2022-11-20T00:20:52;5.40;99.90
15113;DHT22;7657;50.140;7.076;2022-11-20T00:23:20;5.40;99.90
15113;DHT22;7657;50.140;7.076;2022-11-20T00:25:46;5.30;99.90
15113;DHT22;7657;50.140;7.076;2022-11-20T00:28:13;5.20;99.90
15113;DHT22;7657;50.140;7.076;2022-11-20T00:30:40;5.30;99.90
15113;DHT22;7657;50.140;7.076;2022-11-20T00:33:08;5.30;99.90
15113;DHT22;7657;50.140;7.076;2022-11-20T00:35:35;5.40;99.90
15113;DHT22;7657;50.140;7.076;2022-11-20T00:38:02;5.50;99.90
15113;DHT22;7657;50.140;7.076;2022-11-20T00:40:29;5.60;99.90
15113;DHT22;7657;50.140;7.076;2022-11-20T00:42:56;5.50;99.90
15113;DHT22;7657;50.140;7.076;2022-11-20T00:45:23;5.60;99.90
15113;DHT22;7657;50.140;7.076;2022-11-20T00:47:49;5.50;99.90
15113;DHT22;7657;50.140;7.076;2022-11-20T00:50:18;5.40;99.90
15113;DHT22;7657;50.140;7.076;2022-11-20T00:52:45;5.50;99.90
15113;DHT22;7657;50.140;7.076;2022-11-20T00:55:11;5.60;99.90
15113;DHT22;7657;50.140;7.076;2022-11-20T00:57:38;5.70;99.90
15113;DHT22;7657;50.140;7.076;2022-11-20T01:00:06;5.80;99.90
15113;DHT22;7657;50.140;7.076;2022-11-20T01:02:33;5.80;99.90
15113;DHT22;7657;50.140;7.076;2022-11-20T01:05:00;5.90;99.90
15113;DHT22;7657;50.140;7.076;2022-11-20T01:07:29;5.90;99.90
15113;DHT22;7657;50.140;7.076;2022-11-20T01:09:55;5.90;99.90
15113;DHT22;7657;50.140;7.076;2022-11-20T01:12:22;6.00;99.90
15113;DHT22;7657;50.140;7.076;2022-11-20T01:14:49;6.00;99.90
15113;DHT22;7657;50.140;7.076;2022-11-20T01:17:16;6.00;99.90
15113;DHT22;7657;50.140;7.076;2022-11-20T01:19:43;6.10;99.90
15113;DHT22;7657;50.140;7.076;2022-11-20T01:22:10;6.10;99.90
15113;DHT22;7657;50.140;7.076;2022-11-20T01:24:38;6.10;99.90
15113;DHT22;7657;50.140;7.076;2022-11-20T01:27:05;6.10;99.90
15113;DHT22;7657;50.140;7.076;2022-11-20T01:29:32;6.10;99.90
15113;DHT22;7657;50.140;7.076;2022-11-20T01:31:59;6.00;99.90
15113;DHT22;7657;50.140;7.076;2022-11-20T01:34:25;6.00;99.90
15113;DHT22;7657;50.140;7.076;2022-11-20T01:36:52;6.00;99.90
15113;DHT22;7657;50.140;7.076;2022-11-20T01:39:21;6.10;99.90
15113;DHT22;7657;50.140;7.076;2022-11-20T01:41:51;6.00;99.90
15113;DHT22;7657;50.140;7.076;2022-11-20T01:44:57;6.00;99.90
15113;DHT22;7657;50.140;7.076;2022-11-20T01:47:29;6.00;99.90
15113;DHT22;7657;50.140;7.076;2022-11-20T01:49:59;6.00;99.90
15113;DHT22;7657;50.140;7.076;2022-11-20T01:52:30;5.90;99.90
15113;DHT22;7657;50.140;7.076;2022-11-20T01:55:02;5.90;99.90
15113;DHT22;7657;50.140;7.076;2022-11-20T01:57:33;6.00;99.90
15113;DHT22;7657;50.140;7.076;2022-11-20T02:00:04;5.90;99.90
15113;DHT22;7657;50.140;7.076;2022-11-20T02:02:32;5.90;99.90
15113;DHT22;7657;50.140;7.076;2022-11-20T02:05:04;5.90;99.90
15113;DHT22;7657;50.140;7.076;2022-11-20T02:07:35;6.00;99.90
15113;DHT22;7657;50.140;7.076;2022-11-20T02:10:03;6.00;99.90
15113;DHT22;7657;50.140;7.076;2022-11-20T02:12:32;6.10;99.90
15113;DHT22;7657;50.140;7.076;2022-11-20T02:15:16;6.10;99.90
15113;DHT22;7657;50.140;7.076;2022-11-20T02:17:44;6.20;99.90
15113;DHT22;7657;50.140;7.076;2022-11-20T02:20:12;6.20;99.90
15113;DHT22;7657;50.140;7.076;2022-11-20T02:22:44;6.20;99.90
15113;DHT22;7657;50.140;7.076;2022-11-20T02:25:14;6.20;99.90
15113;DHT22;7657;50.140;7.076;2022-11-20T02:27:41;6.30;99.90
15113;DHT22;7657;50.140;7.076;2022-11-20T02:30:09;6.30;99.90
15113;DHT22;7657;50.140;7.076;2022-11-20T02:32:39;6.30;99.90
15113;DHT22;7657;50.140;7.076;2022-11-20T02:35:08;6.30;99.90
15113;DHT22;7657;50.140;7.076;2022-11-20T02:37:38;6.30;99.90
15113;DHT22;7657;50.140;7.076;2022-11-20T02:40:07;6.30;99.90
15113;DHT22;7657;50.140;7.076;2022-11-20T02:42:35;6.30;99.90
15113;DHT22;7657;50.140;7.076;2022-11-20T02:45:03;6.30;99.90
15113;DHT22;7657;50.140;7.076;2022-11-20T02:47:30;6.20;99.90
15113;DHT22;7657;50.140;7.076;2022-11-20T02:49:57;6.10;99.90
15113;DHT22;7657;50.140;7.076;2022-11-20T02:52:25;6.20;99.90
15113;DHT22;7657;50.140;7.076;2022-11-20T02:54:52;6.10;99.90
15113;DHT22;7657;50.140;7.076;2022-11-20T02:57:19;6.10;99.90
15113;DHT22;7657;50.140;7.076;2022-11-20T02:59:47;6.20;99.90
15113;DHT22;7657;50.140;7.076;2022-11-20T03:02:14;6.30;99.90
15113;DHT22;7657;50.140;7.076;2022-11-20T03:04:41;6.30;99.90
15113;DHT22;7657;50.140;7.076;2022-11-20T03:07:09;6.30;99.90
15113;DHT22;7657;50.140;7.076;2022-11-20T03:09:36;6.30;99.90
15113;DHT22;7657;50.140;7.076;2022-11-20T03:12:03;6.30;99.90
15113;DHT22;7657;50.140;7.076;2022-11-20T03:14:30;6.30;99.90
15113;DHT22;7657;50.140;7.076;2022-11-20T03:16:58;6.30;99.90
15113;DHT22;7657;50.140;7.076;2022-11-20T03:19:25;6.30;99.90
15113;DHT22;7657;50.140;7.076;2022-11-20T03:21:52;6.30;99.90
15113;DHT22;7657;50.140;7.076;2022-11-20T03:24:19;6.40;99.90
15113;DHT22;7657;50.140;7.076;2022-11-20T03:26:46;6.40;99.90
15113;DHT22;7657;50.140;7.076;2022-11-20T03:29:13;6.40;99.90
15113;DHT22;7657;50.140;7.076;2022-11-20T03:31:40;6.50;99.90
15113;DHT22;7657;50.140;7.076;2022-11-20T03:34:10;6.50;99.90
15113;DHT22;7657;50.140;7.076;2022-11-20T03:36:38;6.40;99.90
15113;DHT22;7657;50.140;7.076;2022-11-20T03:39:06;6.30;99.90
15113;DHT22;7657;50.140;7.076;2022-11-20T03:41:36;6.40;99.90
15113;DHT22;7657;50.140;7.076;2022-11-20T03:44:05;6.40;99.90
15113;DHT22;7657;50.140;7.076;2022-11-20T03:46:33;6.40;99.90
15113;DHT22;7657;50.140;7.076;2022-11-20T03:49:01;6.50;99.90
15113;DHT22;7657;50.140;7.076;2022-11-20T03:51:30;6.50;99.90
15113;DHT22;7657;50.140;7.076;2022-11-20T03:54:00;6.50;99.90
15113;DHT22;7657;50.140;7.076;2022-11-20T03:56:29;6.50;99.90
15113;DHT22;7657;50.140;7.076;2022-11-20T03:58:56;6.60;99.90
15113;DHT22;7657;50.140;7.076;2022-11-20T04:01:25;6.50;99.90
15113;DHT22;7657;50.140;7.076;2022-11-20T04:03:53;6.50;99.90
15113;DHT22;7657;50.140;7.076;2022-11-20T04:06:22;6.50;99.90
15113;DHT22;7657;50.140;7.076;2022-11-20T04:08:50;6.50;99.90
15113;DHT22;7657;50.140;7.076;2022-11-20T04:11:19;6.60;99.90
15113;DHT22;7657;50.140;7.076;2022-11-20T04:13:49;6.60;99.90
15113;DHT22;7657;50.140;7.076;2022-11-20T04:16:17;6.60;99.90
15113;DHT22;7657;50.140;7.076;2022-11-20T04:18:44;6.70;99.90
15113;DHT22;7657;50.140;7.076;2022-11-20T04:21:11;6.60;99.90
15113;DHT22;7657;50.140;7.076;2022-11-20T04:23:39;6.70;99.90
15113;DHT22;7657;50.140;7.076;2022-11-20T04:26:09;6.60;99.90
15113;DHT22;7657;50.140;7.076;2022-11-20T04:28:37;6.60;99.90
15113;DHT22;7657;50.140;7.076;2022-11-20T04:31:06;6.60;99.90
15113;DHT22;7657;50.140;7.076;2022-11-20T04:33:33;6.60;99.90
15113;DHT22;7657;50.140;7.076;2022-11-20T04:36:02;6.60;99.90
15113;DHT22;7657;50.140;7.076;2022-11-20T04:38:30;6.60;99.90
15113;DHT22;7657;50.140;7.076;2022-11-20T04:40:58;6.70;99.90
15113;DHT22;7657;50.140;7.076;2022-11-20T04:43:26;6.70;99.90
15113;DHT22;7657;50.140;7.076;2022-11-20T04:45:54;6.70;99.90
15113;DHT22;7657;50.140;7.076;2022-11-20T04:48:21;6.70;99.90
15113;DHT22;7657;50.140;7.076;2022-11-20T04:50:48;6.70;99.90
15113;DHT22;7657;50.140;7.076;2022-11-20T04:53:15;6.60;99.90
15113;DHT22;7657;50.140;7.076;2022-11-20T04:55:42;6.70;99.90
15113;DHT22;7657;50.140;7.076;2022-11-20T04:58:09;6.70;99.90
15113;DHT22;7657;50.140;7.076;2022-11-20T05:00:37;6.70;99.90
15113;DHT22;7657;50.140;7.076;2022-11-20T05:03:04;6.70;99.90
15113;DHT22;7657;50.140;7.076;2022-11-20T05:05:31;6.70;99.90
15113;DHT22;7657;50.140;7.076;2022-11-20T05:07:58;6.70;99.90
15113;DHT22;7657;50.140;7.076;2022-11-20T05:10:27;6.70;99.90
15113;DHT22;7657;50.140;7.076;2022-11-20T05:12:54;6.70;99.90
15113;DHT22;7657;50.140;7.076;2022-11-20T05:15:21;6.60;99.90
15113;DHT22;7657;50.140;7.076;2022-11-20T05:17:50;6.70;99.90
15113;DHT22;7657;50.140;7.076;2022-11-20T05:20:17;6.60;99.90
15113;DHT22;7657;50.140;7.076;2022-11-20T05:22:45;6.60;99.90
15113;DHT22;7657;50.140;7.076;2022-11-20T05:25:12;6.60;99.90
15113;DHT22;7657;50.140;7.076;2022-11-20T05:27:39;6.70;99.90
15113;DHT22;7657;50.140;7.076;2022-11-20T05:30:07;6.70;99.90
15113;DHT22;7657;50.140;7.076;2022-11-20T05:32:34;6.70;99.90
15113;DHT22;7657;50.140;7.076;2022-11-20T05:35:03;6.70;99.90
15113;DHT22;7657;50.140;7.076;2022-11-20T05:37:30;6.80;99.90
15113;DHT22;7657;50.140;7.076;2022-11-20T05:39:57;6.80;99.90
15113;DHT22;7657;50.140;7.076;2022-11-20T05:42:24;6.80;99.90
15113;DHT22;7657;50.140;7.076;2022-11-20T05:44:57;6.90;99.90
15113;DHT22;7657;50.140;7.076;2022-11-20T05:47:24;6.80;99.90
15113;DHT22;7657;50.140;7.076;2022-11-20T05:49:51;6.90;99.90
15113;DHT22;7657;50.140;7.076;2022-11-20T05:52:20;6.80;99.90
15113;DHT22;7657;50.140;7.076;2022-11-20T05:54:47;6.80;99.90
15113;DHT22;7657;50.140;7.076;2022-11-20T05:57:14;6.80;99.90
15113;DHT22;7657;50.140;7.076;2022-11-20T05:59:41;6.80;99.90
15113;DHT22;7657;50.140;7.076;2022-11-20T06:02:08;6.80;99.90
15113;DHT22;7657;50.140;7.076;2022-11-20T06:04:35;6.70;99.90
15113;DHT22;7657;50.140;7.076;2022-11-20T06:07:02;6.70;99.90
15113;DHT22;7657;50.140;7.076;2022-11-20T06:09:30;6.60;99.90
15113;DHT22;7657;50.140;7.076;2022-11-20T06:11:57;6.60;99.90
15113;DHT22;7657;50.140;7.076;2022-11-20T06:14:24;6.60;99.90
15113;DHT22;7657;50.140;7.076;2022-11-20T06:16:51;6.70;99.90
15113;DHT22;7657;50.140;7.076;2022-11-20T06:19:18;6.70;99.90
15113;DHT22;7657;50.140;7.076;2022-11-20T06:21:45;6.60;99.90
15113;DHT22;7657;50.140;7.076;2022-11-20T06:24:13;6.70;99.90
15113;DHT22;7657;50.140;7.076;2022-11-20T06:26:42;6.70;99.90
15113;DHT22;7657;50.140;7.076;2022-11-20T06:29:09;6.60;99.90
15113;DHT22;7657;50.140;7.076;2022-11-20T06:31:36;6.60;99.90
15113;DHT22;7657;50.140;7.076;2022-11-20T06:34:03;6.60;99.90
15113;DHT22;7657;50.140;7.076;2022-11-20T06:36:31;6.40;99.90
15113;DHT22;7657;50.140;7.076;2022-11-20T06:38:58;6.30;99.90
15113;DHT22;7657;50.140;7.076;2022-11-20T06:41:25;6.30;99.90
15113;DHT22;7657;50.140;7.076;2022-11-20T06:43:54;6.30;99.90
15113;DHT22;7657;50.140;7.076;2022-11-20T06:46:22;6.20;99.90
15113;DHT22;7657;50.140;7.076;2022-11-20T06:48:49;6.00;99.90
15113;DHT22;7657;50.140;7.076;2022-11-20T06:51:16;5.70;99.90
15113;DHT22;7657;50.140;7.076;2022-11-20T06:53:44;5.70;99.90
15113;DHT22;7657;50.140;7.076;2022-11-20T06:56:10;5.60;99.90
15113;DHT22;7657;50.140;7.076;2022-11-20T06:58:37;5.60;99.90
15113;DHT22;7657;50.140;7.076;2022-11-20T07:01:09;5.50;99.90
15113;DHT22;7657;50.140;7.076;2022-11-20T07:03:36;5.30;99.90
15113;DHT22;7657;50.140;7.076;2022-11-20T07:06:04;5.20;99.90
15113;DHT22;7657;50.140;7.076;2022-11-20T07:08:31;5.30;99.90
15113;DHT22;7657;50.140;7.076;2022-11-20T07:10:59;5.40;99.90
15113;DHT22;7657;50.140;7.076;2022-11-20T07:13:27;5.30;99.90
15113;DHT22;7657;50.140;7.076;2022-11-20T07:15:54;5.30;99.90
15113;DHT22;7657;50.140;7.076;2022-11-20T07:18:22;5.10;99.90
15113;DHT22;7657;50.140;7.076;2022-11-20T07:20:49;5.00;99.90
15113;DHT22;7657;50.140;7.076;2022-11-20T07:23:16;5.00;99.90
15113;DHT22;7657;50.140;7.076;2022-11-20T07:25:43;4.90;99.90
15113;DHT22;7657;50.140;7.076;2022-11-20T07:28:10;4.90;99.90
15113;DHT22;7657;50.140;7.076;2022-11-20T07:30:37;4.80;99.90
15113;DHT22;7657;50.140;7.076;2022-11-20T07:33:04;4.80;99.90
15113;DHT22;7657;50.140;7.076;2022-11-20T07:35:33;4.80;99.90
15113;DHT22;7657;50.140;7.076;2022-11-20T07:37:59;4.90;99.90
15113;DHT22;7657;50.140;7.076;2022-11-20T07:40:26;4.90;99.90
15113;DHT22;7657;50.140;7.076;2022-11-20T07:42:54;4.80;99.90
15113;DHT22;7657;50.140;7.076;2022-11-20T07:45:23;4.90;99.90
15113;DHT22;7657;50.140;7.076;2022-11-20T07:47:50;5.00;99.90
15113;DHT22;7657;50.140;7.076;2022-11-20T07:50:17;5.00;99.90
15113;DHT22;7657;50.140;7.076;2022-11-20T07:52:46;5.10;99.90
15113;DHT22;7657;50.140;7.076;2022-11-20T07:55:13;5.00;99.90
15113;DHT22;7657;50.140;7.076;2022-11-20T07:57:40;5.10;99.90
15113;DHT22;7657;50.140;7.076;2022-11-20T08:00:09;5.10;99.90
15113;DHT22;7657;50.140;7.076;2022-11-20T08:02:37;5.10;99.90
15113;DHT22;7657;50.140;7.076;2022-11-20T08:05:06;5.10;99.90
15113;DHT22;7657;50.140;7.076;2022-11-20T08:07:37;5.20;99.90
15113;DHT22;7657;50.140;7.076;2022-11-20T08:10:07;5.40;99.90
15113;DHT22;7657;50.140;7.076;2022-11-20T08:12:34;5.40;99.90
15113;DHT22;7657;50.140;7.076;2022-11-20T08:15:19;5.30;99.90
15113;DHT22;7657;50.140;7.076;2022-11-20T08:17:46;5.30;99.90
15113;DHT22;7657;50.140;7.076;2022-11-20T08:20:13;5.40;99.90
15113;DHT22;7657;50.140;7.076;2022-11-20T08:22:40;5.50;99.90
15113;DHT22;7657;50.140;7.076;2022-11-20T08:25:08;5.50;99.90
15113;DHT22;7657;50.140;7.076;2022-11-20T08:27:35;5.40;99.90
15113;DHT22;7657;50.140;7.076;2022-11-20T08:30:02;5.30;99.90
15113;DHT22;7657;50.140;7.076;2022-11-20T08:32:30;5.20;99.90
15113;DHT22;7657;50.140;7.076;2022-11-20T08:34:56;5.10;99.90
15113;DHT22;7657;50.140;7.076;2022-11-20T08:37:23;5.10;99.90
15113;DHT22;7657;50.140;7.076;2022-11-20T08:39:50;5.30;99.90
15113;DHT22;7657;50.140;7.076;2022-11-20T08:42:20;5.40;99.90
15113;DHT22;7657;50.140;7.076;2022-11-20T08:44:47;5.40;99.90
15113;DHT22;7657;50.140;7.076;2022-11-20T08:47:14;5.60;99.90
15113;DHT22;7657;50.140;7.076;2022-11-20T08:49:41;5.70;99.90
15113;DHT22;7657;50.140;7.076;2022-11-20T08:52:08;5.60;99.90
15113;DHT22;7657;50.140;7.076;2022-11-20T08:54:34;5.50;99.90
15113;DHT22;7657;50.140;7.076;2022-11-20T08:57:01;5.60;99.90
15113;DHT22;7657;50.140;7.076;2022-11-20T08:59:30;5.60;99.90
15113;DHT22;7657;50.140;7.076;2022-11-20T09:01:57;5.70;99.90
15113;DHT22;7657;50.140;7.076;2022-11-20T09:04:24;5.60;99.90
15113;DHT22;7657;50.140;7.076;2022-11-20T09:06:51;5.70;99.90
15113;DHT22;7657;50.140;7.076;2022-11-20T09:09:18;5.70;99.90
15113;DHT22;7657;50.140;7.076;2022-11-20T09:11:45;5.80;99.90
15113;DHT22;7657;50.140;7.076;2022-11-20T09:14:12;5.80;99.90
15113;DHT22;7657;50.140;7.076;2022-11-20T09:16:41;5.80;99.90
15113;DHT22;7657;50.140;7.076;2022-11-20T09:19:07;5.80;99.90
15113;DHT22;7657;50.140;7.076;2022-11-20T09:21:35;5.90;99.90
15113;DHT22;7657;50.140;7.076;2022-11-20T09:24:02;5.80;99.90
15113;DHT22;7657;50.140;7.076;2022-11-20T09:26:29;5.70;99.90
15113;DHT22;7657;50.140;7.076;2022-11-20T09:28:56;5.90;99.90
15113;DHT22;7657;50.140;7.076;2022-11-20T09:31:24;5.90;99.90
15113;DHT22;7657;50.140;7.076;2022-11-20T09:33:52;5.90;99.90
15113;DHT22;7657;50.140;7.076;2022-11-20T09:36:19;6.00;99.90
15113;DHT22;7657;50.140;7.076;2022-11-20T09:38:47;6.00;99.90
15113;DHT22;7657;50.140;7.076;2022-11-20T09:41:36;6.10;99.90
15113;DHT22;7657;50.140;7.076;2022-11-20T09:44:17;6.20;99.90
15113;DHT22;7657;50.140;7.076;2022-11-20T09:46:52;6.20;99.90
15113;DHT22;7657;50.140;7.076;2022-11-20T09:49:29;6.20;99.90
15113;DHT22;7657;50.140;7.076;2022-11-20T09:52:00;6.40;99.90
15113;DHT22;7657;50.140;7.076;2022-11-20T09:54:36;6.50;99.90
15113;DHT22;7657;50.140;7.076;2022-11-20T09:57:09;6.50;99.90
15113;DHT22;7657;50.140;7.076;2022-11-20T09:59:40;6.60;99.90
15113;DHT22;7657;50.140;7.076;2022-11-20T10:02:16;6.80;99.90
15113;DHT22;7657;50.140;7.076;2022-11-20T10:04:49;6.90;99.90
15113;DHT22;7657;50.140;7.076;2022-11-20T10:07:23;6.90;99.90
15113;DHT22;7657;50.140;7.076;2022-11-20T10:09:54;6.90;99.90
15113;DHT22;7657;50.140;7.076;2022-11-20T10:12:27;7.00;99.90
15113;DHT22;7657;50.140;7.076;2022-11-20T10:15:06;7.00;99.90
15113;DHT22;7657;50.140;7.076;2022-11-20T10:18:05;6.90;99.90
15113;DHT22;7657;50.140;7.076;2022-11-20T10:20:43;7.00;99.90
15113;DHT22;7657;50.140;7.076;2022-11-20T10:23:45;7.00;99.90
15113;DHT22;7657;50.140;7.076;2022-11-20T10:26:22;7.20;99.90
15113;DHT22;7657;50.140;7.076;2022-11-20T10:29:01;7.30;99.90
15113;DHT22;7657;50.140;7.076;2022-11-20T10:31:33;7.40;99.90
15113;DHT22;7657;50.140;7.076;2022-11-20T10:34:05;7.50;99.90
15113;DHT22;7657;50.140;7.076;2022-11-20T10:36:38;7.60;99.90
15113;DHT22;7657;50.140;7.076;2022-11-20T10:39:11;7.60;99.90
15113;DHT22;7657;50.140;7.076;2022-11-20T10:41:42;7.80;99.90
15113;DHT22;7657;50.140;7.076;2022-11-20T10:44:15;7.90;99.90
15113;DHT22;7657;50.140;7.076;2022-11-20T10:47:04;7.90;99.90
15113;DHT22;7657;50.140;7.076;2022-11-20T10:49:33;7.80;99.90
15113;DHT22;7657;50.140;7.076;2022-11-20T10:52:09;7.90;99.90
15113;DHT22;7657;50.140;7.076;2022-11-20T10:54:43;7.90;99.90
15113;DHT22;7657;50.140;7.076;2022-11-20T10:57:24;7.90;99.90
15113;DHT22;7657;50.140;7.076;2022-11-20T11:00:06;7.90;99.90
15113;DHT22;7657;50.140;7.076;2022-11-20T11:02:37;7.90;99.90
15113;DHT22;7657;50.140;7.076;2022-11-20T11:05:13;8.00;99.90
15113;DHT22;7657;50.140;7.076;2022-11-20T11:07:44;7.90;99.90
15113;DHT22;7657;50.140;7.076;2022-11-20T11:10:17;7.90;99.90
15113;DHT22;7657;50.140;7.076;2022-11-20T11:12:46;8.00;99.90
15113;DHT22;7657;50.140;7.076;2022-11-20T11:15:25;8.00;99.90
15113;DHT22;7657;50.140;7.076;2022-11-20T11:17:53;7.90;99.90
15113;DHT22;7657;50.140;7.076;2022-11-20T11:20:21;8.00;99.90
15113;DHT22;7657;50.140;7.076;2022-11-20T11:22:51;8.00;99.90
15113;DHT22;7657;50.140;7.076;2022-11-20T11:25:25;7.90;99.90
15113;DHT22;7657;50.140;7.076;2022-11-20T11:27:54;7.80;99.90
15113;DHT22;7657;50.140;7.076;2022-11-20T11:30:23;7.90;99.90
15113;DHT22;7657;50.140;7.076;2022-11-20T11:32:50;7.90;99.90
15113;DHT22;7657;50.140;7.076;2022-11-20T11:35:23;7.70;99.90
15113;DHT22;7657;50.140;7.076;2022-11-20T11:37:53;7.70;99.90
15113;DHT22;7657;50.140;7.076;2022-11-20T11:40:22;7.70;99.90
15113;DHT22;7657;50.140;7.076;2022-11-20T11:42:57;7.60;99.90
15113;DHT22;7657;50.140;7.076;2022-11-20T11:45:25;7.80;99.90
15113;DHT22;7657;50.140;7.076;2022-11-20T11:47:53;7.80;99.90
15113;DHT22;7657;50.140;7.076;2022-11-20T11:50:22;7.70;99.90
15113;DHT22;7657;50.140;7.076;2022-11-20T11:52:59;7.70;99.90
15113;DHT22;7657;50.140;7.076;2022-11-20T11:55:33;7.80;99.90
15113;DHT22;7657;50.140;7.076;2022-11-20T11:58:16;7.70;99.90
15113;DHT22;7657;50.140;7.076;2022-11-20T12:00:51;7.80;99.90
15113;DHT22;7657;50.140;7.076;2022-11-20T12:03:21;7.80;99.90
15113;DHT22;7657;50.140;7.076;2022-11-20T12:05:53;7.80;99.90
15113;DHT22;7657;50.140;7.076;2022-11-20T12:08:29;7.80;99.90
15113;DHT22;7657;50.140;7.076;2022-11-20T12:11:03;7.70;99.90
15113;DHT22;7657;50.140;7.076;2022-11-20T12:13:42;7.70;99.90
15113;DHT22;7657;50.140;7.076;2022-11-20T12:16:13;7.70;99.90
15113;DHT22;7657;50.140;7.076;2022-11-20T12:18:41;7.80;99.90
15113;DHT22;7657;50.140;7.076;2022-11-20T12:21:19;7.70;99.90
15113;DHT22;7657;50.140;7.076;2022-11-20T12:24:06;7.80;99.90
15113;DHT22;7657;50.140;7.076;2022-11-20T12:26:46;7.80;99.90
15113;DHT22;7657;50.140;7.076;2022-11-20T12:29:23;7.80;99.90
15113;DHT22;7657;50.140;7.076;2022-11-20T12:32:06;7.70;99.90
15113;DHT22;7657;50.140;7.076;2022-11-20T12:34:53;7.60;99.90
15113;DHT22;7657;50.140;7.076;2022-11-20T12:37:33;7.50;99.90
15113;DHT22;7657;50.140;7.076;2022-11-20T12:40:17;7.50;99.90
15113;DHT22;7657;50.140;7.076;2022-11-20T12:42:53;7.50;99.90
15113;DHT22;7657;50.140;7.076;2022-11-20T12:46:08;7.60;99.90
15113;DHT22;7657;50.140;7.076;2022-11-20T12:48:53;7.50;99.90
15113;DHT22;7657;50.140;7.076;2022-11-20T12:51:39;7.50;99.90
15113;DHT22;7657;50.140;7.076;2022-11-20T12:54:27;7.50;99.90
15113;DHT22;7657;50.140;7.076;2022-11-20T12:57:07;7.50;99.90
15113;DHT22;7657;50.140;7.076;2022-11-20T13:02:36;7.40;99.90
15113;DHT22;7657;50.140;7.076;2022-11-20T13:05:17;7.60;99.90
15113;DHT22;7657;50.140;7.076;2022-11-20T13:07:46;7.60;99.90
15113;DHT22;7657;50.140;7.076;2022-11-20T13:10:18;7.60;99.90
15113;DHT22;7657;50.140;7.076;2022-11-20T13:12:49;7.60;99.90
15113;DHT22;7657;50.140;7.076;2022-11-20T13:15:32;7.60;99.90
15113;DHT22;7657;50.140;7.076;2022-11-20T13:18:04;7.60;99.90
15113;DHT22;7657;50.140;7.076;2022-11-20T13:20:33;7.60;99.90
15113;DHT22;7657;50.140;7.076;2022-11-20T13:23:01;7.50;99.90
15113;DHT22;7657;50.140;7.076;2022-11-20T13:25:34;7.60;99.90
15113;DHT22;7657;50.140;7.076;2022-11-20T13:28:05;7.50;99.90
15113;DHT22;7657;50.140;7.076;2022-11-20T13:30:52;7.50;99.90
15113;DHT22;7657;50.140;7.076;2022-11-20T13:33:23;7.50;99.90
15113;DHT22;7657;50.140;7.076;2022-11-20T13:35:57;7.40;99.90
15113;DHT22;7657;50.140;7.076;2022-11-20T13:38:24;7.40;99.90
15113;DHT22;7657;50.140;7.076;2022-11-20T13:40:53;7.60;99.90
15113;DHT22;7657;50.140;7.076;2022-11-20T13:43:33;7.70;99.90
15113;DHT22;7657;50.140;7.076;2022-11-20T13:46:03;7.70;99.90
15113;DHT22;7657;50.140;7.076;2022-11-20T13:48:33;7.70;99.90
15113;DHT22;7657;50.140;7.076;2022-11-20T13:51:13;7.60;99.90
15113;DHT22;7657;50.140;7.076;2022-11-20T13:54:02;7.50;99.90
15113;DHT22;7657;50.140;7.076;2022-11-20T13:56:40;7.40;99.90
15113;DHT22;7657;50.140;7.076;2022-11-20T13:59:24;7.40;99.90
15113;DHT22;7657;50.140;7.076;2022-11-20T14:01:54;7.40;99.90
15113;DHT22;7657;50.140;7.076;2022-11-20T14:04:26;7.30;99.90
15113;DHT22;7657;50.140;7.076;2022-11-20T14:06:56;7.30;99.90
15113;DHT22;7657;50.140;7.076;2022-11-20T14:09:28;7.30;99.90
15113;DHT22;7657;50.140;7.076;2022-11-20T14:11:55;7.30;99.90
15113;DHT22;7657;50.140;7.076;2022-11-20T14:14:26;7.20;99.90
15113;DHT22;7657;50.140;7.076;2022-11-20T14:17:04;7.20;99.90
15113;DHT22;7657;50.140;7.076;2022-11-20T14:19:31;7.20;99.90
15113;DHT22;7657;50.140;7.076;2022-11-20T14:22:18;7.20;99.90
15113;DHT22;7657;50.140;7.076;2022-11-20T14:24:46;7.30;99.90
15113;DHT22;7657;50.140;7.076;2022-11-20T14:27:14;7.30;99.90
15113;DHT22;7657;50.140;7.076;2022-11-20T14:29:45;7.20;99.90
15113;DHT22;7657;50.140;7.076;2022-11-20T14:32:16;7.10;99.90
15113;DHT22;7657;50.140;7.076;2022-11-20T14:34:45;7.10;99.90
15113;DHT22;7657;50.140;7.076;2022-11-20T14:37:19;7.00;99.90
15113;DHT22;7657;50.140;7.076;2022-11-20T14:39:51;7.10;99.90
15113;DHT22;7657;50.140;7.076;2022-11-20T14:42:20;7.20;99.90
15113;DHT22;7657;50.140;7.076;2022-11-20T14:44:49;7.10;99.90
15113;DHT22;7657;50.140;7.076;2022-11-20T14:47:20;7.10;99.90
15113;DHT22;7657;50.140;7.076;2022-11-20T14:49:48;7.10;99.90
15113;DHT22;7657;50.140;7.076;2022-11-20T14:52:18;7.10;99.90
15113;DHT22;7657;50.140;7.076;2022-11-20T14:54:46;7.20;99.90
15113;DHT22;7657;50.140;7.076;2022-11-20T14:57:23;7.30;99.90
15113;DHT22;7657;50.140;7.076;2022-11-20T15:00:03;7.30;99.90
15113;DHT22;7657;50.140;7.076;2022-11-20T15:02:30;7.40;99.90
15113;DHT22;7657;50.140;7.076;2022-11-20T15:04:58;7.50;99.90
15113;DHT22;7657;50.140;7.076;2022-11-20T15:07:29;7.60;99.90
15113;DHT22;7657;50.140;7.076;2022-11-20T15:10:00;7.50;99.90
15113;DHT22;7657;50.140;7.076;2022-11-20T15:12:28;7.50;99.90
15113;DHT22;7657;50.140;7.076;2022-11-20T15:14:58;7.60;99.90
15113;DHT22;7657;50.140;7.076;2022-11-20T15:17:25;7.60;99.90
15113;DHT22;7657;50.140;7.076;2022-11-20T15:19:52;7.50;99.90
15113;DHT22;7657;50.140;7.076;2022-11-20T15:22:19;7.40;99.90
15113;DHT22;7657;50.140;7.076;2022-11-20T15:24:46;7.50;99.90
15113;DHT22;7657;50.140;7.076;2022-11-20T15:27:13;7.60;99.90
15113;DHT22;7657;50.140;7.076;2022-11-20T15:29:40;7.50;99.90
15113;DHT22;7657;50.140;7.076;2022-11-20T15:32:09;7.50;99.90
15113;DHT22;7657;50.140;7.076;2022-11-20T15:34:36;7.50;99.90
15113;DHT22;7657;50.140;7.076;2022-11-20T15:37:03;7.50;99.90
15113;DHT22;7657;50.140;7.076;2022-11-20T15:39:30;7.60;99.90
15113;DHT22;7657;50.140;7.076;2022-11-20T15:41:57;7.60;99.90
15113;DHT22;7657;50.140;7.076;2022-11-20T15:44:24;7.50;99.90
15113;DHT22;7657;50.140;7.076;2022-11-20T15:46:50;7.50;99.90
15113;DHT22;7657;50.140;7.076;2022-11-20T15:49:19;7.40;99.90
15113;DHT22;7657;50.140;7.076;2022-11-20T15:51:49;7.40;99.90
15113;DHT22;7657;50.140;7.076;2022-11-20T15:54:20;7.40;99.90
15113;DHT22;7657;50.140;7.076;2022-11-20T15:56:47;7.40;99.90
15113;DHT22;7657;50.140;7.076;2022-11-20T15:59:15;7.40;99.90
15113;DHT22;7657;50.140;7.076;2022-11-20T16:01:42;7.40;99.90
15113;DHT22;7657;50.140;7.076;2022-11-20T16:04:10;7.40;99.90
15113;DHT22;7657;50.140;7.076;2022-11-20T16:06:39;7.30;99.90
15113;DHT22;7657;50.140;7.076;2022-11-20T16:09:06;7.40;99.90
15113;DHT22;7657;50.140;7.076;2022-11-20T16:11:33;7.30;99.90
15113;DHT22;7657;50.140;7.076;2022-11-20T16:14:01;7.30;99.90
15113;DHT22;7657;50.140;7.076;2022-11-20T16:16:45;7.30;99.90
15113;DHT22;7657;50.140;7.076;2022-11-20T16:19:13;7.20;99.90
15113;DHT22;7657;50.140;7.076;2022-11-20T16:21:42;7.20;99.90
15113;DHT22;7657;50.140;7.076;2022-11-20T16:24:10;7.20;99.90